sensor_id;sensor_type;location;lat;lon;timestamp;pressure;altitude;pressure_sealevel;temperature;humidity
30730;BME280;17476;48.458;7.928;2023-04-06T00:01:56;100286.03;;;4.59;70.41
30730;BME280;17476;48.458;7.928;2023-04-06T00:04:22;100283.53;;;4.47;70.98
30730;BME280;17476;48.458;7.928;2023-04-06T00:06:48;100283.56;;;4.35;71.70
30730;BME280;17476;48.458;7.928;2023-04-06T00:09:14;100286.59;;;4.29;71.40
30730;BME280;17476;48.458;7.928;2023-04-06T00:11:40;100290.84;;;4.30;73.02
30730;BME280;17476;48.458;7.928;2023-04-06T00:14:06;100292.22;;;4.23;73.69
30730;BME280;17476;48.458;7.928;2023-04-06T00:16:32;100285.31;;;4.35;71.27
30730;BME280;17476;48.458;7.928;2023-04-06T00:18:58;100283.97;;;4.18;73.07
30730;BME280;17476;48.458;7.928;2023-04-06T00:21:23;100287.19;;;4.33;73.18
30730;BME280;17476;48.458;7.928;2023-04-06T00:23:49;100284.94;;;4.28;71.08
30730;BME280;17476;48.458;7.928;2023-04-06T00:26:15;100286.94;;;4.25;73.22
30730;BME280;17476;48.458;7.928;2023-04-06T00:28:41;100275.78;;;4.35;73.81
30730;BME280;17476;48.458;7.928;2023-04-06T00:31:07;100290.25;;;4.27;72.38
30730;BME280;17476;48.458;7.928;2023-04-06T00:33:32;100284.50;;;4.34;73.85
30730;BME280;17476;48.458;7.928;2023-04-06T00:35:58;100281.31;;;4.42;73.26
30730;BME280;17476;48.458;7.928;2023-04-06T00:38:24;100277.22;;;4.51;71.74
30730;BME280;17476;48.458;7.928;2023-04-06T00:40:50;100274.97;;;4.35;71.26
30730;BME280;17476;48.458;7.928;2023-04-06T00:43:15;100270.09;;;4.19;72.97
30730;BME280;17476;48.458;7.928;2023-04-06T00:45:42;100266.91;;;4.16;72.11
30730;BME280;17476;48.458;7.928;2023-04-06T00:48:08;100267.88;;;4.15;71.47
30730;BME280;17476;48.458;7.928;2023-04-06T00:50:35;100264.22;;;3.82;71.44
30730;BME280;17476;48.458;7.928;2023-04-06T00:53:01;100268.13;;;3.88;74.60
30730;BME280;17476;48.458;7.928;2023-04-06T00:55:28;100260.50;;;3.97;74.20
30730;BME280;17476;48.458;7.928;2023-04-06T00:57:55;100268.91;;;4.12;72.70
30730;BME280;17476;48.458;7.928;2023-04-06T01:00:22;100266.75;;;4.06;70.84
30730;BME280;17476;48.458;7.928;2023-04-06T01:02:48;100262.97;;;3.99;71.64
30730;BME280;17476;48.458;7.928;2023-04-06T01:05:14;100263.66;;;3.90;72.66
30730;BME280;17476;48.458;7.928;2023-04-06T01:07:40;100263.09;;;3.97;73.38
30730;BME280;17476;48.458;7.928;2023-04-06T01:10:06;100261.81;;;4.03;72.28
30730;BME280;17476;48.458;7.928;2023-04-06T01:12:32;100252.38;;;3.91;71.67
30730;BME280;17476;48.458;7.928;2023-04-06T01:14:59;100258.03;;;3.96;73.30
30730;BME280;17476;48.458;7.928;2023-04-06T01:17:24;100253.19;;;3.91;71.97
30730;BME280;17476;48.458;7.928;2023-04-06T01:19:50;100243.69;;;3.92;74.05
30730;BME280;17476;48.458;7.928;2023-04-06T01:22:19;100244.25;;;3.84;71.57
30730;BME280;17476;48.458;7.928;2023-04-06T01:24:46;100246.69;;;3.74;72.84
30730;BME280;17476;48.458;7.928;2023-04-06T01:27:12;100250.44;;;3.70;73.69
30730;BME280;17476;48.458;7.928;2023-04-06T01:29:39;100238.69;;;3.66;74.81
30730;BME280;17476;48.458;7.928;2023-04-06T01:32:08;100241.97;;;3.68;75.07
30730;BME280;17476;48.458;7.928;2023-04-06T01:34:35;100241.59;;;3.62;73.92
30730;BME280;17476;48.458;7.928;2023-04-06T01:37:00;100238.75;;;3.53;74.81
30730;BME280;17476;48.458;7.928;2023-04-06T01:39:26;100232.94;;;3.50;75.75
30730;BME280;17476;48.458;7.928;2023-04-06T01:41:52;100238.13;;;3.50;75.65
30730;BME280;17476;48.458;7.928;2023-04-06T01:44:18;100234.44;;;3.41;74.60
30730;BME280;17476;48.458;7.928;2023-04-06T01:46:45;100235.03;;;3.45;76.44
30730;BME280;17476;48.458;7.928;2023-04-06T01:49:12;100231.19;;;3.50;75.02
30730;BME280;17476;48.458;7.928;2023-04-06T01:51:38;100225.44;;;3.47;75.97
30730;BME280;17476;48.458;7.928;2023-04-06T01:54:04;100231.88;;;3.41;75.00
30730;BME280;17476;48.458;7.928;2023-04-06T01:56:30;100231.06;;;3.52;75.66
30730;BME280;17476;48.458;7.928;2023-04-06T01:58:56;100225.84;;;3.65;74.42
30730;BME280;17476;48.458;7.928;2023-04-06T02:01:22;100227.59;;;3.64;74.09
30730;BME280;17476;48.458;7.928;2023-04-06T02:03:48;100233.94;;;3.60;75.45
30730;BME280;17476;48.458;7.928;2023-04-06T02:06:13;100230.97;;;3.53;74.19
30730;BME280;17476;48.458;7.928;2023-04-06T02:08:39;100230.03;;;3.54;75.02
30730;BME280;17476;48.458;7.928;2023-04-06T02:11:05;100221.34;;;3.55;74.06
30730;BME280;17476;48.458;7.928;2023-04-06T02:13:31;100232.69;;;3.42;74.74
30730;BME280;17476;48.458;7.928;2023-04-06T02:15:57;100222.00;;;3.22;74.92
30730;BME280;17476;48.458;7.928;2023-04-06T02:18:23;100215.09;;;3.23;76.10
30730;BME280;17476;48.458;7.928;2023-04-06T02:20:49;100218.38;;;3.25;75.83
30730;BME280;17476;48.458;7.928;2023-04-06T02:23:15;100219.81;;;3.29;75.86
30730;BME280;17476;48.458;7.928;2023-04-06T02:25:41;100221.91;;;3.24;75.26
30730;BME280;17476;48.458;7.928;2023-04-06T02:28:07;100219.53;;;3.21;75.50
30730;BME280;17476;48.458;7.928;2023-04-06T02:30:33;100222.94;;;3.21;76.24
30730;BME280;17476;48.458;7.928;2023-04-06T02:33:00;100223.09;;;3.31;74.62
30730;BME280;17476;48.458;7.928;2023-04-06T02:35:29;100225.25;;;3.37;77.00
30730;BME280;17476;48.458;7.928;2023-04-06T02:37:55;100223.03;;;3.33;76.14
30730;BME280;17476;48.458;7.928;2023-04-06T02:40:21;100219.22;;;3.25;75.86
30730;BME280;17476;48.458;7.928;2023-04-06T02:42:47;100217.94;;;3.31;75.44
30730;BME280;17476;48.458;7.928;2023-04-06T02:45:13;100215.47;;;3.29;76.85
30730;BME280;17476;48.458;7.928;2023-04-06T02:47:38;100220.91;;;3.38;75.69
30730;BME280;17476;48.458;7.928;2023-04-06T02:50:05;100218.13;;;3.41;75.68
30730;BME280;17476;48.458;7.928;2023-04-06T02:52:31;100215.09;;;3.47;76.48
30730;BME280;17476;48.458;7.928;2023-04-06T02:54:57;100213.16;;;3.38;72.67
30730;BME280;17476;48.458;7.928;2023-04-06T02:57:23;100213.06;;;3.15;78.36
30730;BME280;17476;48.458;7.928;2023-04-06T02:59:49;100209.97;;;3.10;75.72
30730;BME280;17476;48.458;7.928;2023-04-06T03:02:15;100214.53;;;3.07;75.34
30730;BME280;17476;48.458;7.928;2023-04-06T03:04:42;100212.97;;;3.04;76.47
30730;BME280;17476;48.458;7.928;2023-04-06T03:07:08;100211.22;;;3.05;75.33
30730;BME280;17476;48.458;7.928;2023-04-06T03:09:36;100210.94;;;2.96;75.46
30730;BME280;17476;48.458;7.928;2023-04-06T03:12:02;100209.19;;;2.97;74.69
30730;BME280;17476;48.458;7.928;2023-04-06T03:14:28;100202.75;;;3.03;75.45
30730;BME280;17476;48.458;7.928;2023-04-06T03:16:54;100207.38;;;3.10;74.51
30730;BME280;17476;48.458;7.928;2023-04-06T03:19:20;100209.75;;;3.13;74.96
30730;BME280;17476;48.458;7.928;2023-04-06T03:21:45;100212.22;;;3.15;75.23
30730;BME280;17476;48.458;7.928;2023-04-06T03:24:11;100209.38;;;3.07;73.74
30730;BME280;17476;48.458;7.928;2023-04-06T03:26:39;100210.78;;;2.87;75.13
30730;BME280;17476;48.458;7.928;2023-04-06T03:29:05;100208.75;;;3.03;76.79
30730;BME280;17476;48.458;7.928;2023-04-06T03:31:30;100207.19;;;3.13;75.70
30730;BME280;17476;48.458;7.928;2023-04-06T03:33:56;100217.00;;;3.08;73.56
30730;BME280;17476;48.458;7.928;2023-04-06T03:36:22;100218.69;;;2.96;73.42
30730;BME280;17476;48.458;7.928;2023-04-06T03:38:48;100215.94;;;2.87;74.81
30730;BME280;17476;48.458;7.928;2023-04-06T03:41:14;100221.13;;;2.74;75.24
30730;BME280;17476;48.458;7.928;2023-04-06T03:43:40;100222.53;;;2.91;76.83
30730;BME280;17476;48.458;7.928;2023-04-06T03:46:06;100226.88;;;2.90;75.29
30730;BME280;17476;48.458;7.928;2023-04-06T03:48:31;100232.16;;;2.89;74.40
30730;BME280;17476;48.458;7.928;2023-04-06T03:50:57;100237.72;;;2.83;76.01
30730;BME280;17476;48.458;7.928;2023-04-06T03:53:23;100239.31;;;2.72;74.24
30730;BME280;17476;48.458;7.928;2023-04-06T03:55:49;100244.59;;;2.71;74.36
30730;BME280;17476;48.458;7.928;2023-04-06T03:58:14;100236.34;;;2.53;74.29
30730;BME280;17476;48.458;7.928;2023-04-06T04:00:40;100245.22;;;2.49;76.47
30730;BME280;17476;48.458;7.928;2023-04-06T04:03:06;100249.84;;;2.69;76.54
30730;BME280;17476;48.458;7.928;2023-04-06T04:05:32;100249.78;;;2.58;75.79
30730;BME280;17476;48.458;7.928;2023-04-06T04:07:58;100247.47;;;2.66;77.04
30730;BME280;17476;48.458;7.928;2023-04-06T04:10:23;100244.78;;;2.68;76.84
30730;BME280;17476;48.458;7.928;2023-04-06T04:12:49;100252.00;;;2.76;76.97
30730;BME280;17476;48.458;7.928;2023-04-06T04:15:15;100248.31;;;2.67;75.78
30730;BME280;17476;48.458;7.928;2023-04-06T04:17:41;100248.31;;;2.67;76.80
30730;BME280;17476;48.458;7.928;2023-04-06T04:20:12;100254.28;;;2.80;78.04
30730;BME280;17476;48.458;7.928;2023-04-06T04:22:38;100252.00;;;2.76;76.04
30730;BME280;17476;48.458;7.928;2023-04-06T04:25:04;100253.66;;;2.64;77.32
30730;BME280;17476;48.458;7.928;2023-04-06T04:27:30;100255.75;;;2.59;77.05
30730;BME280;17476;48.458;7.928;2023-04-06T04:29:56;100248.72;;;2.61;77.67
30730;BME280;17476;48.458;7.928;2023-04-06T04:32:21;100252.53;;;2.68;77.94
30730;BME280;17476;48.458;7.928;2023-04-06T04:34:47;100257.16;;;2.76;77.41
30730;BME280;17476;48.458;7.928;2023-04-06T04:37:13;100254.28;;;2.80;76.96
30730;BME280;17476;48.458;7.928;2023-04-06T04:39:39;100248.09;;;2.70;75.92
30730;BME280;17476;48.458;7.928;2023-04-06T04:42:05;100254.91;;;2.71;77.45
30730;BME280;17476;48.458;7.928;2023-04-06T04:44:31;100252.00;;;2.76;77.31
30730;BME280;17476;48.458;7.928;2023-04-06T04:46:57;100262.03;;;2.80;75.98
30730;BME280;17476;48.458;7.928;2023-04-06T04:49:30;100254.59;;;2.76;76.91
30730;BME280;17476;48.458;7.928;2023-04-06T04:52:02;100259.13;;;2.85;77.20
30730;BME280;17476;48.458;7.928;2023-04-06T04:54:35;100267.50;;;2.63;76.22
30730;BME280;17476;48.458;7.928;2023-04-06T04:57:01;100264.03;;;2.51;77.79
30730;BME280;17476;48.458;7.928;2023-04-06T04:59:26;100265.69;;;2.52;75.66
30730;BME280;17476;48.458;7.928;2023-04-06T05:01:52;100265.03;;;2.36;76.92
30730;BME280;17476;48.458;7.928;2023-04-06T05:04:18;100261.22;;;2.41;77.79
30730;BME280;17476;48.458;7.928;2023-04-06T05:06:44;100267.63;;;2.36;77.95
30730;BME280;17476;48.458;7.928;2023-04-06T05:09:10;100271.53;;;2.41;76.57
30730;BME280;17476;48.458;7.928;2023-04-06T05:11:36;100262.88;;;2.55;77.71
30730;BME280;17476;48.458;7.928;2023-04-06T05:14:01;100263.09;;;2.52;76.21
30730;BME280;17476;48.458;7.928;2023-04-06T05:16:27;100271.44;;;2.56;77.62
30730;BME280;17476;48.458;7.928;2023-04-06T05:18:53;100275.38;;;2.61;76.71
30730;BME280;17476;48.458;7.928;2023-04-06T05:21:22;100273.19;;;2.55;76.25
30730;BME280;17476;48.458;7.928;2023-04-06T05:23:48;100273.41;;;2.52;76.19
30730;BME280;17476;48.458;7.928;2023-04-06T05:26:13;100283.00;;;2.50;75.57
30730;BME280;17476;48.458;7.928;2023-04-06T05:28:39;100275.06;;;2.53;76.82
30730;BME280;17476;48.458;7.928;2023-04-06T05:31:05;100274.44;;;2.37;76.70
30730;BME280;17476;48.458;7.928;2023-04-06T05:33:31;100277.44;;;2.31;77.81
30730;BME280;17476;48.458;7.928;2023-04-06T05:35:57;100276.59;;;2.43;77.68
30730;BME280;17476;48.458;7.928;2023-04-06T05:38:23;100277.34;;;2.45;77.19
30730;BME280;17476;48.458;7.928;2023-04-06T05:40:49;100286.50;;;2.49;77.45
30730;BME280;17476;48.458;7.928;2023-04-06T05:43:15;100280.94;;;2.68;75.86
30730;BME280;17476;48.458;7.928;2023-04-06T05:45:40;100282.59;;;2.69;77.41
30730;BME280;17476;48.458;7.928;2023-04-06T05:48:06;100281.66;;;2.70;75.88
30730;BME280;17476;48.458;7.928;2023-04-06T05:50:32;100279.91;;;2.32;77.03
30730;BME280;17476;48.458;7.928;2023-04-06T05:52:58;100283.81;;;2.51;76.86
30730;BME280;17476;48.458;7.928;2023-04-06T05:55:24;100278.47;;;2.54;77.04
30730;BME280;17476;48.458;7.928;2023-04-06T05:57:49;100279.28;;;2.54;75.46
30730;BME280;17476;48.458;7.928;2023-04-06T06:00:15;100286.63;;;2.35;76.81
30730;BME280;17476;48.458;7.928;2023-04-06T06:02:41;100289.09;;;2.36;78.09
30730;BME280;17476;48.458;7.928;2023-04-06T06:05:08;100277.84;;;2.50;77.03
30730;BME280;17476;48.458;7.928;2023-04-06T06:07:35;100285.38;;;2.66;76.94
30730;BME280;17476;48.458;7.928;2023-04-06T06:10:01;100290.84;;;2.74;75.97
30730;BME280;17476;48.458;7.928;2023-04-06T06:12:27;100296.00;;;2.74;76.17
30730;BME280;17476;48.458;7.928;2023-04-06T06:14:54;100296.81;;;2.87;76.69
30730;BME280;17476;48.458;7.928;2023-04-06T06:17:20;100299.00;;;2.93;75.90
30730;BME280;17476;48.458;7.928;2023-04-06T06:19:46;100292.78;;;2.83;75.37
30730;BME280;17476;48.458;7.928;2023-04-06T06:22:12;100294.25;;;2.87;76.45
30730;BME280;17476;48.458;7.928;2023-04-06T06:24:38;100294.13;;;3.01;75.63
30730;BME280;17476;48.458;7.928;2023-04-06T06:27:04;100298.47;;;3.01;74.35
30730;BME280;17476;48.458;7.928;2023-04-06T06:29:29;100298.16;;;3.06;75.61
30730;BME280;17476;48.458;7.928;2023-04-06T06:31:55;100298.19;;;3.17;74.56
30730;BME280;17476;48.458;7.928;2023-04-06T06:34:21;100300.25;;;3.24;74.53
30730;BME280;17476;48.458;7.928;2023-04-06T06:36:47;100293.66;;;3.20;74.48
30730;BME280;17476;48.458;7.928;2023-04-06T06:39:12;100300.59;;;3.20;74.91
30730;BME280;17476;48.458;7.928;2023-04-06T06:41:38;100303.56;;;3.26;73.62
30730;BME280;17476;48.458;7.928;2023-04-06T06:44:04;100299.00;;;3.30;74.34
30730;BME280;17476;48.458;7.928;2023-04-06T06:46:30;100309.69;;;3.49;73.47
30730;BME280;17476;48.458;7.928;2023-04-06T06:48:58;100305.28;;;3.63;72.96
30730;BME280;17476;48.458;7.928;2023-04-06T06:51:24;100308.16;;;3.71;72.91
30730;BME280;17476;48.458;7.928;2023-04-06T06:53:50;100303.47;;;3.76;72.54
30730;BME280;17476;48.458;7.928;2023-04-06T06:56:15;100300.81;;;3.89;72.04
30730;BME280;17476;48.458;7.928;2023-04-06T06:58:41;100297.34;;;4.01;71.41
30730;BME280;17476;48.458;7.928;2023-04-06T07:01:07;100300.75;;;4.01;71.57
30730;BME280;17476;48.458;7.928;2023-04-06T07:03:33;100297.97;;;4.16;71.95
30730;BME280;17476;48.458;7.928;2023-04-06T07:05:59;100301.88;;;4.21;72.33
30730;BME280;17476;48.458;7.928;2023-04-06T07:08:25;100292.50;;;4.43;70.88
30730;BME280;17476;48.458;7.928;2023-04-06T07:10:52;100290.03;;;4.52;70.75
30730;BME280;17476;48.458;7.928;2023-04-06T07:13:19;100290.41;;;4.70;71.00
30730;BME280;17476;48.458;7.928;2023-04-06T07:15:52;100288.28;;;4.86;69.05
30730;BME280;17476;48.458;7.928;2023-04-06T07:18:21;100288.75;;;4.91;68.15
30730;BME280;17476;48.458;7.928;2023-04-06T07:20:47;100285.31;;;5.13;68.92
30730;BME280;17476;48.458;7.928;2023-04-06T07:23:13;100283.53;;;5.36;69.09
30730;BME280;17476;48.458;7.928;2023-04-06T07:25:39;100291.50;;;5.56;66.28
30730;BME280;17476;48.458;7.928;2023-04-06T07:28:05;100291.44;;;5.67;67.58
30730;BME280;17476;48.458;7.928;2023-04-06T07:30:31;100282.53;;;5.92;65.60
30730;BME280;17476;48.458;7.928;2023-04-06T07:32:57;100284.63;;;6.19;65.91
30730;BME280;17476;48.458;7.928;2023-04-06T07:35:26;100283.84;;;6.49;64.45
30730;BME280;17476;48.458;7.928;2023-04-06T07:37:53;100282.59;;;6.74;63.90
30730;BME280;17476;48.458;7.928;2023-04-06T07:40:20;100281.34;;;6.99;61.61
30730;BME280;17476;48.458;7.928;2023-04-06T07:42:46;100284.00;;;7.28;59.59
30730;BME280;17476;48.458;7.928;2023-04-06T07:45:12;100279.13;;;7.63;58.74
30730;BME280;17476;48.458;7.928;2023-04-06T07:47:38;100286.25;;;8.00;56.80
30730;BME280;17476;48.458;7.928;2023-04-06T07:50:05;100281.53;;;8.33;57.44
30730;BME280;17476;48.458;7.928;2023-04-06T07:52:31;100282.28;;;8.72;56.56
30730;BME280;17476;48.458;7.928;2023-04-06T07:54:58;100285.19;;;9.24;53.94
30730;BME280;17476;48.458;7.928;2023-04-06T07:57:24;100271.47;;;9.75;50.62
30730;BME280;17476;48.458;7.928;2023-04-06T07:59:50;100274.97;;;10.02;48.25
30730;BME280;17476;48.458;7.928;2023-04-06T08:02:17;100269.19;;;10.60;48.97
30730;BME280;17476;48.458;7.928;2023-04-06T08:04:43;100266.31;;;11.13;49.06
30730;BME280;17476;48.458;7.928;2023-04-06T08:07:09;100270.31;;;11.58;47.63
30730;BME280;17476;48.458;7.928;2023-04-06T08:09:35;100269.56;;;11.98;46.94
30730;BME280;17476;48.458;7.928;2023-04-06T08:12:01;100269.22;;;12.18;44.91
30730;BME280;17476;48.458;7.928;2023-04-06T08:14:26;100264.13;;;12.80;44.35
30730;BME280;17476;48.458;7.928;2023-04-06T08:16:52;100267.81;;;13.10;43.91
30730;BME280;17476;48.458;7.928;2023-04-06T08:19:18;100267.25;;;12.83;41.54
30730;BME280;17476;48.458;7.928;2023-04-06T08:21:45;100265.81;;;13.12;46.17
30730;BME280;17476;48.458;7.928;2023-04-06T08:24:12;100259.34;;;13.54;44.15
30730;BME280;17476;48.458;7.928;2023-04-06T08:26:38;100259.22;;;13.93;42.98
30730;BME280;17476;48.458;7.928;2023-04-06T08:29:04;100257.59;;;14.30;44.59
30730;BME280;17476;48.458;7.928;2023-04-06T08:31:33;100255.97;;;14.43;40.87
30730;BME280;17476;48.458;7.928;2023-04-06T08:33:59;100255.78;;;14.45;36.67
30730;BME280;17476;48.458;7.928;2023-04-06T08:36:26;100262.59;;;14.69;39.89
30730;BME280;17476;48.458;7.928;2023-04-06T08:38:51;100264.00;;;15.52;38.65
30730;BME280;17476;48.458;7.928;2023-04-06T08:41:18;100260.25;;;15.82;37.02
30730;BME280;17476;48.458;7.928;2023-04-06T08:43:58;100267.25;;;15.97;34.31
30730;BME280;17476;48.458;7.928;2023-04-06T08:46:25;100262.34;;;15.66;36.38
30730;BME280;17476;48.458;7.928;2023-04-06T08:49:02;100262.84;;;15.18;36.77
30730;BME280;17476;48.458;7.928;2023-04-06T08:51:30;100272.16;;;14.03;38.64
30730;BME280;17476;48.458;7.928;2023-04-06T08:53:57;100269.34;;;14.19;39.40
30730;BME280;17476;48.458;7.928;2023-04-06T08:56:27;100275.16;;;14.52;38.50
30730;BME280;17476;48.458;7.928;2023-04-06T08:58:55;100265.25;;;14.69;36.43
30730;BME280;17476;48.458;7.928;2023-04-06T09:01:25;100258.81;;;15.22;41.27
30730;BME280;17476;48.458;7.928;2023-04-06T09:03:55;100263.25;;;15.58;36.49
30730;BME280;17476;48.458;7.928;2023-04-06T09:06:21;100254.63;;;15.49;34.56
30730;BME280;17476;48.458;7.928;2023-04-06T09:08:47;100256.75;;;15.75;35.32
30730;BME280;17476;48.458;7.928;2023-04-06T09:11:14;100249.03;;;15.74;34.96
30730;BME280;17476;48.458;7.928;2023-04-06T09:13:52;100242.03;;;16.44;38.80
30730;BME280;17476;48.458;7.928;2023-04-06T09:16:19;100242.56;;;17.08;34.96
30730;BME280;17476;48.458;7.928;2023-04-06T09:18:45;100238.34;;;17.40;32.83
30730;BME280;17476;48.458;7.928;2023-04-06T09:21:12;100239.66;;;17.84;36.91
30730;BME280;17476;48.458;7.928;2023-04-06T09:23:39;100242.31;;;18.11;32.46
30730;BME280;17476;48.458;7.928;2023-04-06T09:26:14;100245.75;;;18.24;31.96
30730;BME280;17476;48.458;7.928;2023-04-06T09:28:54;100239.03;;;18.22;31.26
30730;BME280;17476;48.458;7.928;2023-04-06T09:31:25;100247.06;;;18.80;31.70
30730;BME280;17476;48.458;7.928;2023-04-06T09:33:52;100245.38;;;18.92;30.92
30730;BME280;17476;48.458;7.928;2023-04-06T09:36:19;100243.53;;;19.38;29.74
30730;BME280;17476;48.458;7.928;2023-04-06T09:39:12;100237.91;;;19.59;29.08
30730;BME280;17476;48.458;7.928;2023-04-06T09:41:38;100248.31;;;19.16;28.69
30730;BME280;17476;48.458;7.928;2023-04-06T09:44:10;100245.53;;;18.39;30.07
30730;BME280;17476;48.458;7.928;2023-04-06T09:46:39;100246.50;;;18.51;29.32
30730;BME280;17476;48.458;7.928;2023-04-06T09:49:07;100239.84;;;19.39;31.86
30730;BME280;17476;48.458;7.928;2023-04-06T09:51:37;100235.66;;;19.87;32.18
30730;BME280;17476;48.458;7.928;2023-04-06T09:54:04;100231.88;;;20.20;29.36
30730;BME280;17476;48.458;7.928;2023-04-06T09:56:45;100232.72;;;20.39;28.33
30730;BME280;17476;48.458;7.928;2023-04-06T09:59:31;100226.41;;;20.15;25.52
30730;BME280;17476;48.458;7.928;2023-04-06T10:02:05;100224.78;;;20.14;28.20
30730;BME280;17476;48.458;7.928;2023-04-06T10:04:49;100219.44;;;20.57;27.30
30730;BME280;17476;48.458;7.928;2023-04-06T10:07:17;100218.34;;;20.47;25.76
30730;BME280;17476;48.458;7.928;2023-04-06T10:09:46;100220.47;;;19.95;26.07
30730;BME280;17476;48.458;7.928;2023-04-06T10:12:13;100226.09;;;19.48;26.75
30730;BME280;17476;48.458;7.928;2023-04-06T10:14:39;100215.97;;;19.00;28.07
30730;BME280;17476;48.458;7.928;2023-04-06T10:17:06;100214.03;;;19.59;28.14
30730;BME280;17476;48.458;7.928;2023-04-06T10:19:59;100214.44;;;20.67;27.44
30730;BME280;17476;48.458;7.928;2023-04-06T10:22:43;100213.25;;;20.45;26.42
30730;BME280;17476;48.458;7.928;2023-04-06T10:25:16;100204.06;;;20.78;26.91
30730;BME280;17476;48.458;7.928;2023-04-06T10:27:42;100196.94;;;21.08;25.09
30730;BME280;17476;48.458;7.928;2023-04-06T10:30:08;100203.09;;;21.20;25.87
30730;BME280;17476;48.458;7.928;2023-04-06T10:32:38;100201.59;;;20.46;23.93
30730;BME280;17476;48.458;7.928;2023-04-06T10:35:11;100213.00;;;20.28;24.94
30730;BME280;17476;48.458;7.928;2023-04-06T10:37:51;100198.59;;;19.99;24.85
30730;BME280;17476;48.458;7.928;2023-04-06T10:40:25;100202.16;;;19.61;24.15
30730;BME280;17476;48.458;7.928;2023-04-06T10:42:55;100206.72;;;19.48;27.42
30730;BME280;17476;48.458;7.928;2023-04-06T10:45:25;100198.84;;;19.03;24.99
30730;BME280;17476;48.458;7.928;2023-04-06T10:47:54;100197.66;;;19.62;30.30
30730;BME280;17476;48.458;7.928;2023-04-06T10:50:22;100197.22;;;20.33;26.88
30730;BME280;17476;48.458;7.928;2023-04-06T10:53:02;100189.34;;;19.58;24.97
30730;BME280;17476;48.458;7.928;2023-04-06T10:55:28;100197.88;;;19.60;27.79
30730;BME280;17476;48.458;7.928;2023-04-06T10:57:55;100194.66;;;19.58;26.00
30730;BME280;17476;48.458;7.928;2023-04-06T11:00:21;100193.22;;;20.06;26.88
30730;BME280;17476;48.458;7.928;2023-04-06T11:02:47;100186.88;;;21.10;29.79
30730;BME280;17476;48.458;7.928;2023-04-06T11:05:14;100183.44;;;21.21;24.71
30730;BME280;17476;48.458;7.928;2023-04-06T11:07:41;100189.19;;;21.60;26.05
30730;BME280;17476;48.458;7.928;2023-04-06T11:10:08;100186.44;;;21.78;25.32
30730;BME280;17476;48.458;7.928;2023-04-06T11:12:34;100196.75;;;20.91;23.73
30730;BME280;17476;48.458;7.928;2023-04-06T11:15:02;100181.66;;;21.45;25.65
30730;BME280;17476;48.458;7.928;2023-04-06T11:17:33;100169.53;;;22.72;23.85
30730;BME280;17476;48.458;7.928;2023-04-06T11:20:00;100172.22;;;23.46;23.61
30730;BME280;17476;48.458;7.928;2023-04-06T11:22:27;100166.47;;;23.87;25.95
30730;BME280;17476;48.458;7.928;2023-04-06T11:24:52;100153.03;;;24.21;25.51
30730;BME280;17476;48.458;7.928;2023-04-06T11:27:19;100157.09;;;24.67;24.19
30730;BME280;17476;48.458;7.928;2023-04-06T11:29:47;100157.97;;;24.78;23.38
30730;BME280;17476;48.458;7.928;2023-04-06T11:32:21;100155.44;;;25.47;25.67
30730;BME280;17476;48.458;7.928;2023-04-06T11:34:47;100150.47;;;25.29;22.12
30730;BME280;17476;48.458;7.928;2023-04-06T11:37:14;100150.28;;;25.73;23.02
30730;BME280;17476;48.458;7.928;2023-04-06T11:39:51;100147.50;;;25.63;20.30
30730;BME280;17476;48.458;7.928;2023-04-06T11:42:25;100146.63;;;25.52;21.23
30730;BME280;17476;48.458;7.928;2023-04-06T11:44:58;100141.88;;;25.64;23.59
30730;BME280;17476;48.458;7.928;2023-04-06T11:47:34;100142.03;;;25.84;21.49
30730;BME280;17476;48.458;7.928;2023-04-06T11:50:14;100143.66;;;25.48;23.91
30730;BME280;17476;48.458;7.928;2023-04-06T11:52:41;100140.75;;;25.55;20.72
30730;BME280;17476;48.458;7.928;2023-04-06T11:55:15;100134.34;;;24.97;20.20
30730;BME280;17476;48.458;7.928;2023-04-06T11:57:43;100137.78;;;25.51;24.08
30730;BME280;17476;48.458;7.928;2023-04-06T12:00:10;100133.13;;;25.74;20.86
30730;BME280;17476;48.458;7.928;2023-04-06T12:02:37;100134.16;;;25.30;21.94
30730;BME280;17476;48.458;7.928;2023-04-06T12:05:05;100128.63;;;24.34;21.55
30730;BME280;17476;48.458;7.928;2023-04-06T12:07:32;100131.66;;;23.82;22.57
30730;BME280;17476;48.458;7.928;2023-04-06T12:10:01;100128.19;;;24.42;22.99
30730;BME280;17476;48.458;7.928;2023-04-06T12:12:28;100126.41;;;23.37;25.21
30730;BME280;17476;48.458;7.928;2023-04-06T12:14:55;100126.50;;;23.42;24.29
30730;BME280;17476;48.458;7.928;2023-04-06T12:17:21;100125.66;;;23.92;23.40
30730;BME280;17476;48.458;7.928;2023-04-06T12:19:47;100125.56;;;24.47;25.06
30730;BME280;17476;48.458;7.928;2023-04-06T12:22:13;100125.06;;;24.50;20.89
30730;BME280;17476;48.458;7.928;2023-04-06T12:24:39;100122.81;;;24.20;23.00
30730;BME280;17476;48.458;7.928;2023-04-06T12:27:04;100122.75;;;24.37;23.51
30730;BME280;17476;48.458;7.928;2023-04-06T12:29:31;100115.34;;;24.93;22.31
30730;BME280;17476;48.458;7.928;2023-04-06T12:31:56;100114.81;;;24.42;25.27
30730;BME280;17476;48.458;7.928;2023-04-06T12:34:22;100111.22;;;23.71;22.70
30730;BME280;17476;48.458;7.928;2023-04-06T12:36:48;100106.16;;;24.13;24.61
30730;BME280;17476;48.458;7.928;2023-04-06T12:39:14;100104.59;;;22.78;22.33
30730;BME280;17476;48.458;7.928;2023-04-06T12:41:40;100115.69;;;22.29;24.91
30730;BME280;17476;48.458;7.928;2023-04-06T12:44:08;100111.06;;;22.53;24.09
30730;BME280;17476;48.458;7.928;2023-04-06T12:46:34;100107.03;;;23.25;23.97
30730;BME280;17476;48.458;7.928;2023-04-06T12:49:00;100099.69;;;23.70;22.12
30730;BME280;17476;48.458;7.928;2023-04-06T12:51:29;100096.75;;;23.89;25.68
30730;BME280;17476;48.458;7.928;2023-04-06T12:53:56;100102.97;;;23.94;23.52
30730;BME280;17476;48.458;7.928;2023-04-06T12:56:22;100095.03;;;23.61;24.51